Time;durP1;ratioP1;P1;durP2;ratioP2;P2;SDS_P1;SDS_P2;PMS_P1;PMS_P2;Temp;Humidity;BMP_temperature;BMP_pressure;BME280_temperature;BME280_humidity;BME280_pressure;Samples;Min_cycle;Max_cycle;Signal;HPM_P1;HPM_P2
2020/12/02 00:02:20;;;;;;;;;;;;;;;;;;;;;
2020/12/02 00:05:20;;;;;;;;;;;;;;;;;;;;;
2020/12/02 00:08:40;;;;;;;31.17;19.27;;;6.80;99.90;;;;;;5157089;27;20029;-89
2020/12/02 00:11:16;;;;;;;28.60;17.65;;;6.80;99.90;;;;;;5132295;27;20027;-91
2020/12/02 00:13:48;;;;;;;28.85;17.75;;;6.80;99.90;;;;;;5138102;27;20109;-89
2020/12/02 00:17:00;;;;;;;30.38;17.98;;;6.80;99.90;;;;;;5138290;27;20027;-89
2020/12/02 00:19:37;;;;;;;32.28;18.65;;;6.80;99.90;;;;;;5093659;27;20282;-90
2020/12/02 00:22:16;;;;;;;28.25;17.75;;;6.80;99.90;;;;;;5138254;27;20033;-89
2020/12/02 00:25:07;;;;;;;27.17;16.67;;;6.80;99.90;;;;;;5156402;27;20031;-89
2020/12/02 00:27:47;;;;;;;26.67;16.73;;;6.80;99.90;;;;;;5137952;27;20083;-89
2020/12/02 00:30:41;;;;;;;32.33;18.55;;;6.80;99.90;;;;;;5137731;27;20034;-89
2020/12/02 00:33:12;;;;;;;26.92;16.20;;;6.80;99.90;;;;;;5137195;27;20114;-89
2020/12/02 00:35:44;;;;;;;25.00;16.20;;;6.80;99.90;;;;;;5137612;27;20034;-88
2020/12/02 00:38:32;;;;;;;27.77;17.38;;;6.80;99.90;;;;;;5120561;27;20430;-89
2020/12/02 00:41:17;;;;;;;30.92;18.17;;;6.80;99.90;;;;;;5137293;27;20068;-89
2020/12/02 00:43:44;;;;;;;27.42;17.00;;;6.80;99.90;;;;;;5137486;27;20042;-89
2020/12/02 00:46:13;;;;;;;27.15;16.23;;;6.80;99.90;;;;;;5137505;27;20033;-89
2020/12/02 00:48:50;;;;;;;26.90;16.40;;;6.80;99.90;;;;;;5137687;27;20026;-89
2020/12/02 00:51:24;;;;;;;26.25;15.98;;;6.80;99.90;;;;;;5137496;27;20023;-89
2020/12/02 00:53:52;;;;;;;24.33;15.90;;;6.80;99.90;;;;;;5136884;27;20369;-90
2020/12/02 00:56:23;;;;;;;25.92;15.45;;;6.80;99.90;;;;;;5137534;27;20062;-89
2020/12/02 00:59:19;;;;;;;;;;;;;;;;;;;;;
2020/12/02 01:01:57;;;;;;;22.70;14.65;;;6.80;99.90;;;;;;5155727;27;20030;-89
2020/12/02 01:04:31;;;;;;;26.80;15.25;;;6.80;99.90;;;;;;5137262;27;20019;-90
2020/12/02 01:07:00;;;;;;;23.52;14.27;;;6.80;99.90;;;;;;5137417;27;20038;-90
2020/12/02 01:09:39;;;;;;;27.88;16.27;;;6.80;99.90;;;;;;5155914;27;20019;-90
2020/12/02 01:12:06;;;;;;;28.10;16.80;;;6.80;99.90;;;;;;5137366;27;20461;-89
2020/12/02 01:14:33;;;;;;;28.70;16.88;;;6.70;99.90;;;;;;5155176;27;20023;-89
2020/12/02 01:17:01;;;;;;;27.13;16.85;;;6.70;99.90;;;;;;5135560;27;20066;-89
2020/12/02 01:19:34;;;;;;;29.08;16.77;;;6.70;99.90;;;;;;5155495;27;20026;-90
2020/12/02 01:22:19;;;;;;;27.33;17.08;;;6.70;99.90;;;;;;5155779;27;20038;-89
2020/12/02 01:24:58;;;;;;;26.67;16.30;;;6.70;99.90;;;;;;5137112;27;20026;-89
2020/12/02 01:27:55;;;;;;;26.35;16.50;;;6.70;99.90;;;;;;5137084;27;20026;-89
2020/12/02 01:30:22;;;;;;;28.58;15.77;;;6.70;99.90;;;;;;5136833;27;20027;-90
2020/12/02 01:32:51;;;;;;;29.92;18.13;;;6.70;99.90;;;;;;5137040;27;20072;-89
2020/12/02 01:38:20;;;;;;;29.60;17.42;;;6.70;99.90;;;;;;5151172;27;20355;-89
2020/12/02 01:40:46;;;;;;;28.75;16.73;;;6.70;99.90;;;;;;5136776;27;20470;-89
2020/12/02 01:43:12;;;;;;;27.55;16.55;;;6.60;99.90;;;;;;5154929;27;20126;-89
2020/12/02 01:45:50;;;;;;;26.77;15.98;;;6.60;99.90;;;;;;5136908;27;20095;-89
2020/12/02 01:48:22;;;;;;;28.90;16.45;;;6.60;99.90;;;;;;5137093;27;20065;-90
2020/12/02 01:51:02;;;;;;;32.17;18.70;;;6.60;99.90;;;;;;5136934;27;20029;-89
2020/12/02 01:53:36;;;;;;;30.60;18.70;;;6.70;99.90;;;;;;5155478;27;20039;-89
2020/12/02 01:56:09;;;;;;;26.30;16.10;;;6.60;99.90;;;;;;5136907;27;20018;-89
2020/12/02 01:59:18;;;;;;;27.88;16.77;;;6.60;99.90;;;;;;5136734;27;20038;-89
2020/12/02 02:02:07;;;;;;;29.55;17.25;;;6.60;99.90;;;;;;5103101;27;20053;-88
2020/12/02 02:04:55;;;;;;;31.73;18.20;;;6.60;99.90;;;;;;5136671;27;20412;-88
2020/12/02 02:07:27;;;;;;;29.90;16.92;;;6.60;99.90;;;;;;5156921;27;20026;-88
2020/12/02 02:10:11;;;;;;;28.73;17.08;;;6.60;99.90;;;;;;5140043;27;20030;-89
2020/12/02 02:12:57;;;;;;;28.08;17.88;;;6.60;99.90;;;;;;5140277;27;20031;-89
2020/12/02 02:15:32;;;;;;;30.70;17.20;;;6.60;99.90;;;;;;5139852;27;20373;-88
2020/12/02 02:18:00;;;;;;;29.70;16.52;;;6.60;99.90;;;;;;5140131;27;20031;-89
2020/12/02 02:20:38;;;;;;;26.17;15.88;;;6.60;99.90;;;;;;5158326;27;20023;-89
2020/12/02 02:23:09;;;;;;;27.55;16.10;;;6.60;99.90;;;;;;5139687;27;20053;-88
2020/12/02 02:25:35;;;;;;;30.55;16.75;;;6.60;99.90;;;;;;5157740;27;20035;-89
2020/12/02 02:28:11;;;;;;;28.92;17.58;;;6.60;99.90;;;;;;5140038;27;20037;-88
2020/12/02 02:30:37;;;;;;;30.27;17.83;;;6.60;99.90;;;;;;5140056;27;20027;-89
2020/12/02 02:33:04;;;;;;;31.70;16.75;;;6.60;99.90;;;;;;5139564;27;20113;-88
2020/12/02 02:35:33;;;;;;;29.63;17.13;;;6.60;99.90;;;;;;5139432;27;20030;-89
2020/12/02 02:38:08;;;;;;;28.65;16.65;;;6.60;99.90;;;;;;5158217;27;20087;-89
2020/12/02 02:40:33;;;;;;;28.75;16.27;;;6.60;99.90;;;;;;5140037;27;20075;-89
2020/12/02 02:43:06;;;;;;;31.63;17.05;;;6.60;99.90;;;;;;5137326;27;20039;-90
2020/12/02 02:45:35;;;;;;;31.88;18.55;;;6.70;99.90;;;;;;5139851;27;20034;-88
2020/12/02 02:48:07;;;;;;;31.85;18.45;;;6.60;99.90;;;;;;5158335;27;20462;-89
2020/12/02 02:50:35;;;;;;;29.55;17.75;;;6.60;99.90;;;;;;5139738;27;20018;-89
2020/12/02 02:53:21;;;;;;;31.98;18.80;;;6.60;99.90;;;;;;5139933;27;20095;-89
2020/12/02 02:55:49;;;;;;;34.70;19.15;;;6.60;99.90;;;;;;5139496;27;20065;-89
2020/12/02 02:58:17;;;;;;;29.92;17.30;;;6.60;99.90;;;;;;5157306;27;20047;-90
2020/12/02 03:00:46;;;;;;;31.85;18.83;;;6.60;99.90;;;;;;5139479;27;20026;-88
2020/12/02 03:03:14;;;;;;;29.60;17.55;;;6.60;99.90;;;;;;5157542;27;20047;-88
2020/12/02 03:05:42;;;;;;;35.55;19.45;;;6.60;99.90;;;;;;5139452;27;20113;-88
2020/12/02 03:08:12;;;;;;;33.92;20.17;;;6.60;99.90;;;;;;5139206;27;20075;-88
2020/12/02 03:10:41;;;;;;;30.02;17.95;;;6.60;99.90;;;;;;5139290;27;20034;-88
2020/12/02 03:13:25;;;;;;;32.35;17.25;;;6.60;99.90;;;;;;5138461;27;20026;-89
2020/12/02 03:15:51;;;;;;;39.05;19.92;;;6.60;99.90;;;;;;5138462;27;20067;-88
2020/12/02 03:18:18;;;;;;;29.60;17.45;;;6.60;99.90;;;;;;5138507;27;20038;-88
2020/12/02 03:20:57;;;;;;;32.08;17.65;;;6.60;99.90;;;;;;5138982;27;20411;-88
2020/12/02 03:23:24;;;;;;;35.85;19.65;;;6.50;99.90;;;;;;5139064;27;20117;-88
2020/12/02 03:25:53;;;;;;;32.92;18.70;;;6.60;99.90;;;;;;5138903;27;20118;-88
2020/12/02 03:28:20;;;;;;;32.05;18.65;;;6.60;99.90;;;;;;5138786;27;20027;-88
2020/12/02 03:30:48;;;;;;;30.35;18.17;;;6.60;99.90;;;;;;5138781;27;20029;-88
2020/12/02 03:33:16;;;;;;;32.50;17.30;;;6.50;99.90;;;;;;5139022;27;20022;-88
2020/12/02 03:35:43;;;;;;;28.92;16.80;;;6.60;99.90;;;;;;5138270;27;20374;-88
2020/12/02 03:38:10;;;;;;;29.92;16.30;;;6.60;99.90;;;;;;5138439;27;20038;-87
2020/12/02 03:40:39;;;;;;;29.52;16.17;;;6.60;99.90;;;;;;5157285;27;20449;-88
2020/12/02 03:43:08;;;;;;;32.72;19.05;;;6.50;99.90;;;;;;5138134;27;20478;-87
2020/12/02 03:45:40;;;;;;;30.27;18.77;;;6.60;99.90;;;;;;5138373;27;20068;-87
2020/12/02 03:48:11;;;;;;;34.22;18.67;;;6.50;99.90;;;;;;5149810;27;20030;-87
2020/12/02 03:50:38;;;;;;;33.10;18.20;;;6.50;99.90;;;;;;5137738;27;20022;-88
2020/12/02 03:53:08;;;;;;;33.75;18.02;;;6.50;99.90;;;;;;5156812;27;20026;-88
2020/12/02 03:55:35;;;;;;;31.48;18.95;;;6.50;99.90;;;;;;5138646;27;20031;-89
2020/12/02 03:58:07;;;;;;;29.13;18.60;;;6.50;99.90;;;;;;5137421;27;20382;-87
2020/12/02 04:00:38;;;;;;;33.92;18.15;;;6.50;99.90;;;;;;5138268;27;20118;-88
2020/12/02 04:03:05;;;;;;;30.77;18.42;;;6.50;99.90;;;;;;5138042;27;20034;-87
2020/12/02 04:05:37;;;;;;;31.30;17.08;;;6.50;99.90;;;;;;5138125;27;20055;-89
2020/12/02 04:08:06;;;;;;;29.30;16.95;;;6.50;99.90;;;;;;5138000;27;20454;-88
2020/12/02 04:10:35;;;;;;;33.17;18.88;;;6.50;99.90;;;;;;5137998;27;20034;-88
2020/12/02 04:13:03;;;;;;;32.92;18.80;;;6.50;99.90;;;;;;5137400;27;20543;-88
2020/12/02 04:15:29;;;;;;;28.58;17.73;;;6.50;99.90;;;;;;5156144;27;20450;-88
2020/12/02 04:18:01;;;;;;;29.17;16.83;;;6.50;99.90;;;;;;5155493;27;20119;-88
2020/12/02 04:20:27;;;;;;;28.55;16.42;;;6.50;99.90;;;;;;5137659;27;20083;-87
2020/12/02 04:22:57;;;;;;;27.60;15.30;;;6.50;99.90;;;;;;5155822;27;20035;-87
2020/12/02 04:25:27;;;;;;;26.83;15.30;;;6.50;99.90;;;;;;5137813;27;20023;-88
2020/12/02 04:27:53;;;;;;;29.92;16.50;;;6.50;99.90;;;;;;5155827;27;20101;-88
2020/12/02 04:30:20;;;;;;;27.13;15.90;;;6.50;99.90;;;;;;5136707;27;20060;-88
2020/12/02 04:32:47;;;;;;;27.85;15.63;;;6.50;99.90;;;;;;5137321;27;20026;-88
2020/12/02 04:35:13;;;;;;;30.83;15.95;;;6.50;99.90;;;;;;5137278;27;20019;-89
2020/12/02 04:37:39;;;;;;;32.10;16.98;;;6.50;99.90;;;;;;5137250;27;20121;-88
2020/12/02 04:40:12;;;;;;;33.22;17.70;;;6.50;99.90;;;;;;5137551;27;20057;-88
2020/12/02 04:42:45;;;;;;;31.85;16.58;;;6.50;99.90;;;;;;5137202;27;20125;-88
2020/12/02 04:45:16;;;;;;;32.80;17.85;;;6.50;99.90;;;;;;5137521;27;20117;-88
2020/12/02 04:47:42;;;;;;;30.00;17.80;;;6.50;99.90;;;;;;5137324;27;20125;-88
2020/12/02 04:50:30;;;;;;;33.40;17.05;;;6.40;99.90;;;;;;5137219;27;20043;-88
2020/12/02 04:53:13;;;;;;;28.42;16.35;;;6.40;99.90;;;;;;5155406;27;20035;-88
2020/12/02 04:55:57;;;;;;;35.40;17.30;;;6.40;99.90;;;;;;5155803;27;20035;-87
2020/12/02 04:58:29;;;;;;;31.70;17.90;;;6.50;99.90;;;;;;5137040;27;20068;-87
2020/12/02 05:01:27;;;;;;;29.15;15.80;;;6.50;99.90;;;;;;5136965;27;20057;-88
2020/12/02 05:04:15;;;;;;;32.00;16.50;;;6.50;99.90;;;;;;5136896;27;20031;-88
2020/12/02 05:06:47;;;;;;;31.63;15.57;;;6.40;99.90;;;;;;5137364;27;20023;-87
2020/12/02 05:09:22;;;;;;;33.95;17.48;;;6.40;99.90;;;;;;5136912;27;20023;-87
2020/12/02 05:11:56;;;;;;;32.97;16.92;;;6.40;99.90;;;;;;5155532;27;20066;-87
2020/12/02 05:14:44;;;;;;;31.38;16.30;;;6.40;99.90;;;;;;5137044;27;20050;-88
2020/12/02 05:17:27;;;;;;;33.13;17.20;;;6.40;99.90;;;;;;5136915;27;20069;-88
2020/12/02 05:20:07;;;;;;;29.23;16.02;;;6.40;99.90;;;;;;5136773;27;20058;-87
2020/12/02 05:22:44;;;;;;;29.80;15.95;;;6.30;99.90;;;;;;5136853;27;20073;-88
2020/12/02 05:25:32;;;;;;;29.55;16.30;;;6.40;99.90;;;;;;5137107;27;20031;-88
2020/12/02 05:28:38;;;;;;;32.05;15.70;;;6.40;99.90;;;;;;5137219;27;20022;-88
2020/12/02 05:31:28;;;;;;;23.98;13.55;;;6.40;99.90;;;;;;5136806;27;20019;-88
2020/12/02 05:34:11;;;;;;;27.63;13.85;;;6.40;99.90;;;;;;5137296;27;20051;-88
2020/12/02 05:36:42;;;;;;;25.67;13.45;;;6.50;99.90;;;;;;5137017;27;20022;-88
2020/12/02 05:39:38;;;;;;;25.77;13.13;;;6.40;99.90;;;;;;5136616;27;20139;-88
2020/12/02 05:42:13;;;;;;;22.80;13.07;;;6.40;99.90;;;;;;5140629;27;20019;-88
2020/12/02 05:44:42;;;;;;;25.17;12.80;;;6.40;99.90;;;;;;5141026;27;20455;-88
2020/12/02 05:47:16;;;;;;;25.05;12.50;;;6.40;99.90;;;;;;5159098;27;20038;-88
2020/12/02 05:49:46;;;;;;;28.23;15.30;;;6.40;99.90;;;;;;5140877;27;20110;-89
2020/12/02 05:52:38;;;;;;;29.17;14.38;;;6.40;99.90;;;;;;5159071;27;20026;-88
2020/12/02 05:55:32;;;;;;;24.92;13.43;;;6.40;99.90;;;;;;5129612;27;20035;-88
2020/12/02 05:58:20;;;;;;;30.75;15.25;;;6.40;99.90;;;;;;5140408;27;20022;-87
2020/12/02 06:00:46;;;;;;;32.97;15.40;;;6.40;99.90;;;;;;5140544;27;20035;-88
2020/12/02 06:03:14;;;;;;;31.75;16.33;;;6.40;99.90;;;;;;5140148;27;20076;-89
2020/12/02 06:05:43;;;;;;;29.65;15.80;;;6.40;99.90;;;;;;5140592;27;20113;-88
2020/12/02 06:08:10;;;;;;;34.17;18.08;;;6.40;99.90;;;;;;5139721;27;20031;-88
2020/12/02 06:10:56;;;;;;;37.92;17.48;;;6.40;99.90;;;;;;5158644;27;20031;-89
2020/12/02 06:13:52;;;;;;;32.70;16.80;;;6.30;99.90;;;;;;5158720;27;20019;-89
2020/12/02 06:16:24;;;;;;;32.78;15.95;;;6.30;99.90;;;;;;5140366;27;20023;-88
2020/12/02 06:19:02;;;;;;;;;;;;;;;;;;;;;
2020/12/02 06:21:43;;;;;;;34.50;15.75;;;6.30;99.90;;;;;;5158388;27;20022;-88
2020/12/02 06:24:30;;;;;;;30.35;15.52;;;6.30;99.90;;;;;;5122931;27;20027;-87
2020/12/02 06:27:53;;;;;;;32.78;16.67;;;6.30;99.90;;;;;;5140002;27;20030;-87
2020/12/02 06:30:26;;;;;;;33.58;15.75;;;6.30;99.90;;;;;;5074304;28;20028;-88
2020/12/02 06:33:20;;;;;;;32.80;15.85;;;6.30;99.90;;;;;;5127348;27;20026;-88
2020/12/02 06:42:02;;;;;;;26.58;13.75;;;6.30;99.90;;;;;;5092292;28;20383;-88
2020/12/02 06:48:41;;;;;;;;;;;;;;;;;;;;;
2020/12/02 06:51:35;;;;;;;;;;;;;;;;;;;;;
2020/12/02 06:54:11;;;;;;;;;;;;;;;;;;;;;
2020/12/02 06:56:37;;;;;;;25.77;11.77;;;6.30;99.90;;;;;;5157673;27;19899;-89
2020/12/02 06:59:57;;;;;;;;;;;;;;;;;;;;;
2020/12/02 07:03:07;;;;;;;22.25;11.30;;;6.30;99.90;;;;;;5154159;27;20033;-87
2020/12/02 07:06:25;;;;;;;;;;;;;;;;;;;;;
2020/12/02 07:12:25;;;;;;;28.00;13.15;;;6.30;99.90;;;;;;5150462;27;20031;-88
2020/12/02 07:19:06;;;;;;;25.17;11.93;;;6.30;99.90;;;;;;5126224;27;20023;-90
2020/12/02 07:22:32;;;;;;;;;;;;;;;;;;;;;
2020/12/02 07:28:50;;;;;;;26.85;13.40;;;6.40;99.90;;;;;;5099684;28;20170;-88
2020/12/02 07:31:29;;;;;;;23.48;12.38;;;6.40;99.90;;;;;;5100693;28;20038;-88
2020/12/02 07:34:23;;;;;;;24.98;12.75;;;6.30;99.90;;;;;;5096044;28;20030;-87
2020/12/02 07:37:13;;;;;;;24.80;13.32;;;6.40;99.90;;;;;;5112392;28;20150;-86
2020/12/02 07:40:42;;;;;;;24.40;12.10;;;6.40;99.90;;;;;;5125917;27;20492;-87
2020/12/02 07:43:29;;;;;;;31.08;14.60;;;6.30;99.90;;;;;;5022015;28;20191;-87
2020/12/02 07:46:36;;;;;;;;;;;;;;;;;;;;;
2020/12/02 07:49:13;;;;;;;27.73;13.07;;;6.30;99.90;;;;;;5133490;27;20035;-88
2020/12/02 07:51:49;;;;;;;28.48;13.82;;;6.30;99.90;;;;;;5135744;27;20034;-88
2020/12/02 07:54:31;;;;;;;26.30;13.05;;;6.30;99.90;;;;;;5134737;27;20076;-88
2020/12/02 07:57:01;;;;;;;27.10;13.55;;;6.30;99.90;;;;;;5134441;27;20024;-88
2020/12/02 08:00:01;;;;;;;30.25;14.93;;;6.30;99.90;;;;;;5134929;27;20036;-88
2020/12/02 08:02:39;;;;;;;30.27;13.70;;;6.30;99.90;;;;;;5054938;28;20025;-88
2020/12/02 08:05:37;;;;;;;27.15;12.88;;;6.40;99.90;;;;;;5127148;27;20035;-88
2020/12/02 08:08:12;;;;;;;29.23;12.15;;;6.40;99.90;;;;;;5134486;27;20088;-88
2020/12/02 08:10:54;;;;;;;;;;;;;;;;;;;;;
2020/12/02 08:13:23;;;;;;;23.92;11.43;;;6.40;99.90;;;;;;5135779;27;20366;-89
2020/12/02 08:16:56;;;;;;;24.27;11.30;;;6.40;99.90;;;;;;5133691;27;20031;-88
2020/12/02 08:20:01;;;;;;;25.23;13.32;;;6.40;99.90;;;;;;5101357;27;20037;-89
2020/12/02 08:25:52;;;;;;;23.48;11.82;;;6.40;99.90;;;;;;5113870;28;20063;-88
2020/12/02 08:28:32;;;;;;;;;;;;;;;;;;;;;
2020/12/02 08:31:13;;;;;;;22.98;11.25;;;6.30;99.90;;;;;;5114392;28;20027;-88
2020/12/02 08:34:09;;;;;;;;;;;;;;;;;;;;;
2020/12/02 08:37:09;;;;;;;;;;;;;;;;;;;;;
2020/12/02 08:39:52;;;;;;;21.63;10.80;;;6.40;99.90;;;;;;5114607;28;20027;-88
2020/12/02 08:42:42;;;;;;;21.30;12.33;;;6.40;99.90;;;;;;5113244;28;20031;-88
2020/12/02 08:45:40;;;;;;;20.73;10.82;;;6.40;99.90;;;;;;5114784;28;20261;-88
2020/12/02 08:48:34;;;;;;;19.55;11.20;;;6.40;99.90;;;;;;5113434;28;20047;-88
2020/12/02 08:51:23;;;;;;;;;;;;;;;;;;;;;
2020/12/02 08:54:10;;;;;;;19.23;10.70;;;6.50;99.90;;;;;;5114685;28;20027;-88
2020/12/02 08:56:45;;;;;;;19.88;10.85;;;6.50;99.90;;;;;;5074621;28;20039;-89
2020/12/02 09:03:03;;;;;;;22.98;11.65;;;6.50;99.90;;;;;;5088475;28;20361;-92
2020/12/02 09:05:38;;;;;;;24.40;10.75;;;6.50;99.90;;;;;;5074860;28;20376;-89
2020/12/02 09:08:21;;;;;;;22.20;10.90;;;6.40;99.90;;;;;;5095279;28;20032;-88
2020/12/02 09:11:24;;;;;;;;;;;;;;;;;;;;;
2020/12/02 09:17:22;;;;;;;20.15;10.07;;;6.50;99.90;;;;;;5127827;27;20019;-89
2020/12/02 09:20:00;;;;;;;21.52;10.23;;;6.50;99.90;;;;;;5137668;27;20023;-89
2020/12/02 09:22:59;;;;;;;;;;;;;;;;;;;;;
2020/12/02 09:25:59;;;;;;;21.58;10.45;;;6.50;99.90;;;;;;5138753;27;20019;-89
2020/12/02 09:35:07;;;;;;;22.77;10.45;;;6.60;99.90;;;;;;5108257;27;20118;-89
2020/12/02 09:38:10;;;;;;;;;;;;;;;;;;;;;
2020/12/02 09:44:51;;;;;;;;;;;;;;;;;;;;;
2020/12/02 09:47:41;;;;;;;17.85;10.52;;;6.60;99.90;;;;;;5122095;27;20033;-90
2020/12/02 09:50:26;;;;;;;;;;;;;;;;;;;;;
2020/12/02 09:53:31;;;;;;;19.25;10.75;;;6.60;99.90;;;;;;5158341;27;20023;-90
2020/12/02 09:56:18;;;;;;;17.65;9.57;;;6.60;99.90;;;;;;5152095;27;20037;-90
2020/12/02 09:59:04;;;;;;;;;;;;;;;;;;;;;
2020/12/02 10:02:11;;;;;;;18.88;10.05;;;6.60;99.90;;;;;;5148655;27;20045;-88
2020/12/02 10:05:09;;;;;;;18.48;10.85;;;6.60;99.90;;;;;;5133690;27;20054;-87
2020/12/02 10:08:17;;;;;;;17.35;9.90;;;6.60;99.90;;;;;;5134575;27;20091;-89
2020/12/02 10:11:10;;;;;;;18.33;10.38;;;6.70;99.90;;;;;;5133564;27;20019;-88
2020/12/02 10:14:13;;;;;;;15.75;9.60;;;6.70;99.90;;;;;;5137606;27;20027;-89
2020/12/02 10:17:05;;;;;;;19.67;11.25;;;6.70;99.90;;;;;;5135965;27;20031;-89
2020/12/02 10:19:51;;;;;;;17.38;10.85;;;6.70;99.90;;;;;;5145283;27;20031;-90
2020/12/02 10:22:52;;;;;;;22.05;10.43;;;6.70;99.90;;;;;;5122791;27;20022;-90
2020/12/02 10:26:03;;;;;;;16.98;9.75;;;6.70;99.90;;;;;;5138596;27;20118;-89
2020/12/02 10:29:00;;;;;;;18.58;10.88;;;6.70;99.90;;;;;;5094904;28;20102;-89
2020/12/02 10:31:54;;;;;;;19.58;10.55;;;6.70;99.90;;;;;;5113091;27;20084;-91
2020/12/02 10:34:33;;;;;;;18.77;11.27;;;6.70;99.90;;;;;;5123618;27;20091;-90
2020/12/02 10:37:19;;;;;;;18.88;10.40;;;6.70;99.90;;;;;;5139129;27;20023;-91
2020/12/02 10:39:48;;;;;;;18.83;10.48;;;6.70;99.90;;;;;;5135597;27;20032;-90
2020/12/02 10:42:20;;;;;;;20.83;11.45;;;6.80;99.90;;;;;;5134983;27;20084;-91
2020/12/02 10:45:02;;;;;;;20.70;11.10;;;6.80;99.90;;;;;;5133995;27;20047;-90
2020/12/02 10:47:50;;;;;;;17.90;10.40;;;6.80;99.90;;;;;;5136130;27;20031;-90
2020/12/02 10:53:26;;;;;;;21.92;12.25;;;6.80;99.90;;;;;;5133962;27;20035;-91
2020/12/02 10:55:59;;;;;;;19.73;11.55;;;6.80;99.90;;;;;;5132647;27;20065;-90
2020/12/02 10:58:30;;;;;;;20.75;10.98;;;6.70;99.90;;;;;;5128656;27;20042;-91
2020/12/02 11:01:10;;;;;;;;;;;;;;;;;;;;;
2020/12/02 11:03:51;;;;;;;24.83;12.80;;;6.70;99.90;;;;;;5142030;27;20466;-90
2020/12/02 11:06:48;;;;;;;22.75;12.02;;;6.70;99.90;;;;;;5128285;27;20027;-90
2020/12/02 11:09:24;;;;;;;19.77;11.52;;;6.70;99.90;;;;;;5143415;27;20163;-91
2020/12/02 11:12:11;;;;;;;22.70;12.05;;;6.70;99.90;;;;;;5130120;27;20109;-89
2020/12/02 11:15:06;;;;;;;;;;;;;;;;;;;;;
2020/12/02 11:18:00;;;;;;;22.27;12.60;;;6.70;99.90;;;;;;5129905;27;20031;-90
2020/12/02 11:20:59;;;;;;;21.48;12.15;;;6.70;99.90;;;;;;5125500;27;20049;-90
2020/12/02 11:23:51;;;;;;;24.75;12.77;;;6.80;99.90;;;;;;5129611;27;20050;-90
2020/12/02 11:26:24;;;;;;;20.95;11.23;;;6.80;99.90;;;;;;5113732;27;20029;-90
2020/12/02 11:28:57;;;;;;;20.27;11.82;;;6.70;99.90;;;;;;5126046;27;20023;-90
2020/12/02 11:31:42;;;;;;;24.13;11.70;;;6.80;99.90;;;;;;5121961;27;20070;-90
2020/12/02 11:34:32;;;;;;;21.05;11.18;;;6.80;99.90;;;;;;5127983;27;20043;-90
2020/12/02 11:37:08;;;;;;;26.95;14.10;;;6.80;99.90;;;;;;5121829;27;20028;-90
2020/12/02 11:43:06;;;;;;;31.33;17.63;;;6.80;99.90;;;;;;5133360;27;20031;-88
2020/12/02 11:45:40;;;;;;;31.75;16.70;;;6.70;99.90;;;;;;5130551;27;20039;-91
2020/12/02 11:48:30;;;;;;;31.63;16.95;;;6.70;99.90;;;;;;5119991;27;20059;-90
2020/12/02 11:51:17;;;;;;;31.27;16.75;;;6.70;99.90;;;;;;5130394;27;20019;-89
2020/12/02 11:53:45;;;;;;;28.35;14.27;;;6.70;99.90;;;;;;5122701;27;20035;-89
2020/12/02 11:56:35;;;;;;;29.90;16.50;;;6.70;99.90;;;;;;5127158;27;20042;-88
2020/12/02 11:59:11;;;;;;;29.67;15.70;;;6.70;99.90;;;;;;5129538;27;20027;-89
2020/12/02 12:02:14;;;;;;;25.58;13.98;;;6.70;99.90;;;;;;5123702;27;20031;-87
2020/12/02 12:05:05;;;;;;;37.10;18.25;;;6.70;99.90;;;;;;5134555;27;20079;-88
2020/12/02 12:08:03;;;;;;;35.20;17.02;;;6.70;99.90;;;;;;5133203;27;20053;-90
2020/12/02 12:10:57;;;;;;;30.67;15.95;;;6.60;99.90;;;;;;5133526;27;20181;-89
2020/12/02 12:13:29;;;;;;;;;;;6.60;99.90;;;;;;5101678;27;20034;-88
2020/12/02 12:16:12;;;;;;;37.88;17.73;;;6.60;99.90;;;;;;5132939;27;19914;-88
2020/12/02 12:18:38;;;;;;;37.13;18.27;;;6.60;99.90;;;;;;5134959;27;20374;-90
2020/12/02 12:21:33;;;;;;;33.03;15.73;;;6.60;99.90;;;;;;5134999;27;20033;-91
2020/12/02 12:24:30;;;;;;;33.13;17.08;;;6.60;99.90;;;;;;5128768;27;20019;-89
2020/12/02 12:27:05;;;;;;;36.40;17.52;;;6.60;99.90;;;;;;5141265;27;20385;-90
2020/12/02 12:29:33;;;;;;;34.78;16.15;;;6.60;99.90;;;;;;5128256;27;20389;-89
2020/12/02 12:32:47;;;;;;;36.63;17.30;;;6.70;99.90;;;;;;5136358;27;20714;-90
2020/12/02 12:35:46;;;;;;;37.60;18.88;;;6.70;99.90;;;;;;5143272;27;20090;-90
2020/12/02 12:38:27;;;;;;;43.08;19.88;;;6.70;99.90;;;;;;5123338;27;20051;-90
2020/12/02 12:41:35;;;;;;;41.17;20.27;;;6.60;99.90;;;;;;5131448;27;20035;-90
2020/12/02 12:44:37;;;;;;;42.58;19.83;;;6.60;99.90;;;;;;5110861;27;20471;-90
2020/12/02 12:47:30;;;;;;;40.70;19.58;;;6.60;99.90;;;;;;5085511;27;20133;-90
2020/12/02 12:52:55;;;;;;;42.38;20.30;;;6.60;99.90;;;;;;5114990;27;20039;-91
2020/12/02 12:55:28;;;;;;;45.35;20.08;;;6.60;99.90;;;;;;5090819;28;20230;-90
2020/12/02 12:58:09;;;;;;;;;;;;;;;;;;;;;
2020/12/02 13:01:01;;;;;;;40.60;18.70;;;6.70;99.90;;;;;;5103820;28;20052;-89
2020/12/02 13:03:56;;;;;;;43.20;19.08;;;6.70;99.90;;;;;;5051781;28;20736;-90
2020/12/02 13:06:52;;;;;;;43.53;21.80;;;6.70;99.90;;;;;;5101493;28;20126;-90
2020/12/02 13:09:42;;;;;;;40.35;19.27;;;6.70;99.90;;;;;;5093530;28;20031;-91
2020/12/02 13:12:11;;;;;;;38.80;17.83;;;6.70;99.90;;;;;;5120595;28;20069;-91
2020/12/02 13:15:06;;;;;;;43.53;18.90;;;6.70;99.90;;;;;;5112690;28;20088;-91
2020/12/02 13:18:14;;;;;;;41.15;17.70;;;6.70;99.90;;;;;;5099422;28;20114;-90
2020/12/02 13:21:14;;;;;;;42.58;20.33;;;6.70;99.90;;;;;;5129888;28;20035;-91
2020/12/02 13:24:03;;;;;;;43.33;19.00;;;6.70;99.90;;;;;;5103036;28;20023;-89
2020/12/02 13:26:29;;;;;;;40.08;18.58;;;6.70;99.90;;;;;;5053649;28;20028;-91
2020/12/02 13:29:26;;;;;;;40.75;20.30;;;6.70;99.90;;;;;;5093452;28;20028;-91
2020/12/02 13:32:13;;;;;;;37.75;18.90;;;6.70;99.90;;;;;;5100181;28;20035;-90
2020/12/02 13:35:05;;;;;;;34.22;17.05;;;6.70;99.90;;;;;;5110704;28;20031;-91
2020/12/02 13:37:37;;;;;;;36.58;17.80;;;6.70;99.90;;;;;;5018922;28;20041;-90
2020/12/02 13:40:13;;;;;;;35.50;17.27;;;6.70;99.90;;;;;;5091968;28;20048;-91
2020/12/02 13:42:39;;;;;;;33.03;15.75;;;6.70;99.90;;;;;;5091866;28;20118;-87
2020/12/02 13:45:29;;;;;;;;;;;;;;;;;;;;;
2020/12/02 13:48:04;;;;;;;37.40;16.98;;;6.70;99.90;;;;;;5132422;27;20042;-90
2020/12/02 13:50:32;;;;;;;36.00;16.15;;;6.70;99.90;;;;;;5128995;28;20027;-89
2020/12/02 13:53:25;;;;;;;32.92;15.98;;;6.70;99.90;;;;;;5132107;27;20027;-91
2020/12/02 13:56:05;;;;;;;30.27;13.63;;;6.80;99.90;;;;;;5133492;27;20113;-89
2020/12/02 13:58:45;;;;;;;30.67;15.30;;;6.80;99.90;;;;;;5133517;27;20039;-91
2020/12/02 14:01:34;;;;;;;36.75;17.23;;;6.80;99.90;;;;;;5150154;27;20074;-91
2020/12/02 14:04:24;;;;;;;40.80;19.92;;;6.70;99.90;;;;;;5123208;27;20027;-90
2020/12/02 14:07:03;;;;;;;42.67;17.88;;;6.70;99.90;;;;;;5135197;27;20039;-90
2020/12/02 14:09:56;;;;;;;32.03;15.52;;;6.70;99.90;;;;;;5119547;27;20031;-90
2020/12/02 14:12:28;;;;;;;35.17;16.05;;;6.70;99.90;;;;;;5124244;27;20050;-90
2020/12/02 14:15:00;;;;;;;36.28;16.33;;;6.70;99.90;;;;;;5133974;27;20020;-91
2020/12/02 14:17:36;;;;;;;31.17;14.35;;;6.70;99.90;;;;;;5133336;27;20147;-89
2020/12/02 14:20:26;;;;;;;34.15;15.52;;;6.70;99.90;;;;;;5133345;27;20035;-90
2020/12/02 14:23:22;;;;;;;34.72;16.02;;;6.70;99.90;;;;;;5133568;27;20541;-89
2020/12/02 14:26:08;;;;;;;33.47;14.80;;;6.70;99.90;;;;;;5133434;27;20071;-90
2020/12/02 14:29:23;;;;;;;30.27;15.10;;;6.60;99.90;;;;;;5139182;27;20034;-90
2020/12/02 14:37:43;;;;;;;29.13;13.98;;;6.60;99.90;;;;;;5124034;27;20023;-91
2020/12/02 14:43:38;;;;;;;34.90;15.07;;;6.60;99.90;;;;;;5129710;27;20054;-91
2020/12/02 14:46:58;;;;;;;;;;;;;;;;;;;;;
2020/12/02 14:50:20;;;;;;;;;;;;;;;;;;;;;
2020/12/02 14:52:53;;;;;;;34.97;15.20;;;6.50;99.90;;;;;;5133294;27;20132;-91
2020/12/02 14:58:50;;;;;;;39.75;17.55;;;6.50;99.90;;;;;;5123881;27;20027;-91
2020/12/02 15:01:23;;;;;;;34.20;15.32;;;6.60;99.90;;;;;;5118204;27;20087;-91
2020/12/02 15:04:28;;;;;;;32.58;14.98;;;6.50;99.90;;;;;;5151119;27;20171;-90
2020/12/02 15:07:11;;;;;;;35.95;16.90;;;6.50;99.90;;;;;;5111034;27;20752;-90
2020/12/02 15:10:22;;;;;;;31.70;15.52;;;6.60;99.90;;;;;;5112889;27;20035;-90
2020/12/02 15:13:43;;;;;;;35.60;15.98;;;6.50;99.90;;;;;;5127236;27;20052;-90
2020/12/02 15:16:30;;;;;;;29.75;14.38;;;6.60;99.90;;;;;;5045927;28;20057;-88
2020/12/02 15:19:08;;;;;;;32.72;16.10;;;6.60;99.90;;;;;;5051267;28;20044;-90
2020/12/02 15:22:01;;;;;;;31.88;15.93;;;6.60;99.90;;;;;;5051799;28;20036;-90
2020/12/02 15:24:47;;;;;;;31.17;14.10;;;6.60;99.90;;;;;;5069838;28;20147;-90
2020/12/02 15:27:47;;;;;;;30.70;15.05;;;6.60;99.90;;;;;;5052546;28;20779;-90
2020/12/02 15:31:12;;;;;;;;;;;;;;;;;;;;;
2020/12/02 15:33:59;;;;;;;;;;;;;;;;;;;;;
2020/12/02 15:36:50;;;;;;;28.63;15.13;;;6.50;99.90;;;;;;5137179;27;20035;-91
2020/12/02 15:39:57;;;;;;;25.58;13.07;;;6.60;99.90;;;;;;5118299;27;20042;-90
2020/12/02 15:46:32;;;;;;;;;;;;;;;;;;;;;